UAL123 EGLL-KEWR
Flight info
| Callsign | UAL123 |
|---|---|
| Flight time | N/A |
| Altitude | 38000 |
| Route | CPT L9 BUCGO DCT FELCA DCT OFSOX DCT SLANY DCT MALOT/M085F390 DCT 53N020W 53N030W 53N040W 51N050W DCT ALLRY/N0490F400 N468A TUSKY Q475 COPLY DCT BOS DCT NELIE FLOSI4 |
| Aircraft | B78X/H-SDE1E2E3FGHIJ2J3J4J5M1RWXY/LB1D1 |
Departure
| Time | N/A |
|---|---|
| Airport | London Heathrow Airport (EGLL) |
Arrival
| Time | 2026-04-22 03:40 |
|---|---|
| Airport | Newark Liberty International Airport (KEWR) |
| Time | Latitude | Longitude | Altitude | Speed | Heading |
|---|---|---|---|---|---|
| 2026-04-22 03:04 | 41.92040 | -72.77559 | 40307 ft | 464 kts | 256° |
| 2026-04-22 03:05 | 41.90071 | -72.85769 | 40308 ft | 464 kts | 257° |
| 2026-04-22 03:05 | 41.88106 | -72.94018 | 40310 ft | 464 kts | 256° |
| 2026-04-22 03:06 | 41.86122 | -73.02251 | 40310 ft | 464 kts | 257° |
| 2026-04-22 03:06 | 41.84161 | -73.10402 | 40008 ft | 462 kts | 256° |
| 2026-04-22 03:06 | 41.83170 | -73.14493 | 39774 ft | 462 kts | 256° |
| 2026-04-22 03:07 | 41.82180 | -73.18582 | 39540 ft | 461 kts | 257° |
| 2026-04-22 03:07 | 41.81189 | -73.22672 | 39307 ft | 461 kts | 257° |
| 2026-04-22 03:07 | 41.80196 | -73.26759 | 39073 ft | 461 kts | 257° |
| 2026-04-22 03:07 | 41.79203 | -73.30837 | 38837 ft | 461 kts | 257° |
| 2026-04-22 03:08 | 41.78207 | -73.34919 | 38599 ft | 460 kts | 257° |
| 2026-04-22 03:08 | 41.77213 | -73.38993 | 38369 ft | 460 kts | 257° |
| 2026-04-22 03:08 | 41.76218 | -73.43058 | 38147 ft | 459 kts | 257° |
| 2026-04-22 03:08 | 41.75224 | -73.47111 | 37908 ft | 458 kts | 257° |
| 2026-04-22 03:09 | 41.74229 | -73.51165 | 37671 ft | 457 kts | 257° |
| 2026-04-22 03:09 | 41.73234 | -73.55207 | 37433 ft | 456 kts | 257° |
| 2026-04-22 03:09 | 41.72242 | -73.59235 | 37200 ft | 455 kts | 257° |
| 2026-04-22 03:09 | 41.71250 | -73.63253 | 36955 ft | 454 kts | 257° |
| 2026-04-22 03:10 | 41.70257 | -73.67271 | 36713 ft | 454 kts | 257° |
| 2026-04-22 03:10 | 41.69267 | -73.71269 | 36464 ft | 453 kts | 257° |
| 2026-04-22 03:10 | 41.68291 | -73.75201 | 36218 ft | 451 kts | 257° |
| 2026-04-22 03:10 | 41.67299 | -73.79191 | 35957 ft | 451 kts | 257° |
| 2026-04-22 03:11 | 41.66312 | -73.83159 | 35667 ft | 450 kts | 257° |
| 2026-04-22 03:11 | 41.65358 | -73.87147 | 35373 ft | 449 kts | 258° |
| 2026-04-22 03:11 | 41.64444 | -73.91139 | 35078 ft | 449 kts | 258° |
| 2026-04-22 03:11 | 41.63511 | -73.95127 | 34773 ft | 450 kts | 258° |
| 2026-04-22 03:12 | 41.62555 | -73.99104 | 34452 ft | 450 kts | 258° |
| 2026-04-22 03:12 | 41.60659 | -74.07072 | 33803 ft | 450 kts | 258° |
| 2026-04-22 03:12 | 41.59727 | -74.11006 | 33471 ft | 450 kts | 258° |
| 2026-04-22 03:13 | 41.58774 | -74.14988 | 33097 ft | 451 kts | 258° |
| 2026-04-22 03:13 | 41.57818 | -74.18972 | 32716 ft | 452 kts | 258° |
| 2026-04-22 03:13 | 41.56672 | -74.22905 | 32435 ft | 457 kts | 250° |
| 2026-04-22 03:13 | 41.55092 | -74.26605 | 32202 ft | 462 kts | 242° |
| 2026-04-22 03:14 | 41.53091 | -74.29996 | 31966 ft | 469 kts | 234° |
| 2026-04-22 03:14 | 41.50691 | -74.32996 | 31734 ft | 476 kts | 225° |
| 2026-04-22 03:14 | 41.47935 | -74.35504 | 31499 ft | 484 kts | 217° |
| 2026-04-22 03:14 | 41.44869 | -74.37443 | 31262 ft | 493 kts | 207° |
| 2026-04-22 03:15 | 41.41610 | -74.38901 | 31008 ft | 494 kts | 205° |
| 2026-04-22 03:15 | 41.39410 | -74.39866 | 30853 ft | 493 kts | 205° |
| 2026-04-22 03:15 | 41.35088 | -74.41719 | 30556 ft | 492 kts | 205° |
| 2026-04-22 03:15 | 41.31829 | -74.43106 | 30328 ft | 491 kts | 205° |
| 2026-04-22 03:16 | 41.29631 | -74.44050 | 30179 ft | 490 kts | 205° |
| 2026-04-22 03:16 | 41.26399 | -74.45443 | 29979 ft | 488 kts | 205° |
| 2026-04-22 03:16 | 41.20031 | -74.48163 | 29907 ft | 478 kts | 205° |
| 2026-04-22 03:17 | 41.13842 | -74.50800 | 29798 ft | 453 kts | 205° |
| 2026-04-22 03:17 | 41.10855 | -74.52073 | 29697 ft | 439 kts | 205° |
| 2026-04-22 03:17 | 41.08007 | -74.53278 | 29296 ft | 435 kts | 203° |
| 2026-04-22 03:18 | 41.04948 | -74.53993 | 28609 ft | 447 kts | 190° |
| 2026-04-22 03:18 | 41.01878 | -74.54294 | 27900 ft | 450 kts | 190° |
| 2026-04-22 03:18 | 40.98741 | -74.54579 | 27223 ft | 452 kts | 190° |
| 2026-04-22 03:18 | 40.95612 | -74.54854 | 26667 ft | 448 kts | 190° |
| 2026-04-22 03:19 | 40.92526 | -74.55138 | 26104 ft | 445 kts | 190° |
| 2026-04-22 03:19 | 40.89443 | -74.55430 | 25555 ft | 441 kts | 190° |
| 2026-04-22 03:19 | 40.86392 | -74.55712 | 24961 ft | 438 kts | 190° |
| 2026-04-22 03:19 | 40.83362 | -74.55977 | 24386 ft | 436 kts | 188° |
| 2026-04-22 03:20 | 40.80326 | -74.55863 | 23786 ft | 436 kts | 183° |
| 2026-04-22 03:20 | 40.77300 | -74.55703 | 23208 ft | 433 kts | 184° |
| 2026-04-22 03:20 | 40.74308 | -74.55556 | 22633 ft | 430 kts | 183° |
| 2026-04-22 03:20 | 40.71327 | -74.55398 | 22062 ft | 426 kts | 183° |
| 2026-04-22 03:21 | 40.68381 | -74.55236 | 21493 ft | 423 kts | 183° |
| 2026-04-22 03:21 | 40.65456 | -74.55008 | 20911 ft | 422 kts | 176° |
| 2026-04-22 03:21 | 40.62574 | -74.54225 | 20331 ft | 421 kts | 172° |
| 2026-04-22 03:21 | 40.59722 | -74.53419 | 19741 ft | 418 kts | 172° |
| 2026-04-22 03:22 | 40.56891 | -74.52611 | 19182 ft | 414 kts | 172° |
| 2026-04-22 03:22 | 40.54089 | -74.51806 | 18607 ft | 411 kts | 172° |
| 2026-04-22 03:22 | 40.51306 | -74.51011 | 18027 ft | 407 kts | 172° |
| 2026-04-22 03:22 | 40.48551 | -74.50227 | 17453 ft | 403 kts | 172° |
| 2026-04-22 03:23 | 40.45819 | -74.49449 | 16859 ft | 400 kts | 172° |
| 2026-04-22 03:23 | 40.43108 | -74.48677 | 16273 ft | 397 kts | 172° |
| 2026-04-22 03:23 | 40.40481 | -74.47923 | 15530 ft | 377 kts | 172° |
| 2026-04-22 03:23 | 40.38015 | -74.47220 | 14893 ft | 358 kts | 173° |
| 2026-04-22 03:24 | 40.35616 | -74.46539 | 14398 ft | 337 kts | 173° |
| 2026-04-22 03:24 | 40.33418 | -74.46412 | 13687 ft | 309 kts | 202° |
| 2026-04-22 03:24 | 40.31626 | -74.47622 | 12899 ft | 278 kts | 235° |
| 2026-04-22 03:24 | 40.30744 | -74.49670 | 12034 ft | 249 kts | 266° |
| 2026-04-22 03:25 | 40.30991 | -74.51778 | 11336 ft | 235 kts | 301° |
| 2026-04-22 03:25 | 40.32246 | -74.53134 | 11013 ft | 246 kts | 332° |
| 2026-04-22 03:25 | 40.33906 | -74.53779 | 11010 ft | 250 kts | 340° |
| 2026-04-22 03:25 | 40.35623 | -74.54267 | 11001 ft | 252 kts | 342° |
| 2026-04-22 03:26 | 40.37339 | -74.54718 | 10999 ft | 252 kts | 342° |
| 2026-04-22 03:26 | 40.39061 | -74.55166 | 10997 ft | 253 kts | 342° |
| 2026-04-22 03:26 | 40.40792 | -74.55618 | 11001 ft | 254 kts | 343° |
| 2026-04-22 03:26 | 40.42527 | -74.56071 | 10993 ft | 253 kts | 343° |
| 2026-04-22 03:27 | 40.44254 | -74.56521 | 10993 ft | 253 kts | 342° |
| 2026-04-22 03:27 | 40.45971 | -74.56970 | 10992 ft | 246 kts | 342° |
| 2026-04-22 03:27 | 40.47576 | -74.57374 | 10925 ft | 224 kts | 343° |
| 2026-04-22 03:27 | 40.49104 | -74.57303 | 10689 ft | 230 kts | 12° |
| 2026-04-22 03:28 | 40.50489 | -74.56188 | 10346 ft | 236 kts | 27° |
| 2026-04-22 03:28 | 40.51801 | -74.54893 | 9980 ft | 236 kts | 28° |
| 2026-04-22 03:28 | 40.53105 | -74.53598 | 9592 ft | 235 kts | 29° |
| 2026-04-22 03:28 | 40.54417 | -74.52316 | 9210 ft | 235 kts | 28° |
| 2026-04-22 03:29 | 40.55640 | -74.51146 | 8860 ft | 236 kts | 29° |
| 2026-04-22 03:29 | 40.56973 | -74.49890 | 8497 ft | 236 kts | 29° |
| 2026-04-22 03:29 | 40.58311 | -74.48651 | 8137 ft | 234 kts | 29° |
| 2026-04-22 03:29 | 40.59646 | -74.47431 | 7782 ft | 233 kts | 29° |
| 2026-04-22 03:30 | 40.60977 | -74.46233 | 7396 ft | 230 kts | 29° |
| 2026-04-22 03:30 | 40.62307 | -74.45055 | 6996 ft | 230 kts | 29° |
| 2026-04-22 03:30 | 40.63637 | -74.43896 | 6589 ft | 229 kts | 28° |
| 2026-04-22 03:30 | 40.64962 | -74.42755 | 6195 ft | 227 kts | 29° |
| 2026-04-22 03:31 | 40.66290 | -74.41630 | 5799 ft | 226 kts | 29° |
| 2026-04-22 03:31 | 40.67616 | -74.40527 | 5389 ft | 225 kts | 29° |
| 2026-04-22 03:31 | 40.68948 | -74.39449 | 5003 ft | 224 kts | 29° |
| 2026-04-22 03:31 | 40.70262 | -74.38407 | 4614 ft | 223 kts | 29° |
| 2026-04-22 03:32 | 40.71598 | -74.37372 | 4232 ft | 222 kts | 29° |
| 2026-04-22 03:32 | 40.72934 | -74.36361 | 3843 ft | 221 kts | 29° |
| 2026-04-22 03:32 | 40.74272 | -74.35369 | 3459 ft | 220 kts | 29° |
| 2026-04-22 03:32 | 40.75615 | -74.34397 | 3086 ft | 219 kts | 29° |
| 2026-04-22 03:33 | 40.76954 | -74.33447 | 3015 ft | 221 kts | 29° |
| 2026-04-22 03:33 | 40.78249 | -74.32546 | 3015 ft | 220 kts | 28° |
| 2026-04-22 03:33 | 40.79665 | -74.31564 | 3016 ft | 221 kts | 28° |
| 2026-04-22 03:33 | 40.81024 | -74.30621 | 3012 ft | 221 kts | 28° |
| 2026-04-22 03:34 | 40.82383 | -74.29675 | 3015 ft | 221 kts | 28° |
| 2026-04-22 03:34 | 40.83722 | -74.28685 | 2975 ft | 218 kts | 36° |
| 2026-04-22 03:34 | 40.84693 | -74.27194 | 3143 ft | 216 kts | 68° |
| 2026-04-22 03:34 | 40.85054 | -74.25292 | 3290 ft | 214 kts | 89° |
| 2026-04-22 03:35 | 40.85067 | -74.23338 | 3395 ft | 213 kts | 95° |
| 2026-04-22 03:35 | 40.84946 | -74.21401 | 3440 ft | 210 kts | 103° |
| 2026-04-22 03:35 | 40.84456 | -74.19599 | 3423 ft | 210 kts | 119° |
| 2026-04-22 03:35 | 40.83840 | -74.17872 | 3111 ft | 207 kts | 120° |
| 2026-04-22 03:36 | 40.83175 | -74.16191 | 2844 ft | 205 kts | 122° |
| 2026-04-22 03:36 | 40.82617 | -74.14865 | 2614 ft | 194 kts | 123° |
| 2026-04-22 03:36 | 40.81954 | -74.13410 | 2305 ft | 181 kts | 126° |
| 2026-04-22 03:36 | 40.81178 | -74.12304 | 2104 ft | 157 kts | 149° |
| 2026-04-22 03:37 | 40.80215 | -74.11879 | 1549 ft | 162 kts | 177° |
| 2026-04-22 03:37 | 40.79168 | -74.11793 | 1359 ft | 141 kts | 175° |
| 2026-04-22 03:37 | 40.78141 | -74.11690 | 1118 ft | 150 kts | 178° |
| 2026-04-22 03:37 | 40.77146 | -74.11948 | 1041 ft | 146 kts | 193° |
| 2026-04-22 03:38 | 40.76152 | -74.12217 | 957 ft | 144 kts | 197° |
| 2026-04-22 03:38 | 40.75198 | -74.12688 | 985 ft | 157 kts | 200° |
| 2026-04-22 03:38 | 40.74211 | -74.13272 | 961 ft | 150 kts | 205° |
| 2026-04-22 03:38 | 40.73295 | -74.13886 | 788 ft | 146 kts | 206° |
| 2026-04-22 03:39 | 40.72391 | -74.14490 | 583 ft | 146 kts | 205° |
| 2026-04-22 03:39 | 40.71477 | -74.15055 | 399 ft | 144 kts | 203° |
| 2026-04-22 03:39 | 40.70581 | -74.15624 | 201 ft | 144 kts | 205° |
| 2026-04-22 03:39 | 40.69720 | -74.16173 | 33 ft | 128 kts | 205° |
| 2026-04-22 03:40 | 40.69074 | -74.16586 | 28 ft | 73 kts | 206° |
| 2026-04-22 03:40 | 40.68795 | -74.16798 | 24 ft | 37 kts | 219° |
| 2026-04-22 03:40 | 40.68677 | -74.16994 | 26 ft | 19 kts | 236° |
| 2026-04-22 03:40 | 40.68631 | -74.17088 | 27 ft | 4 kts | 246° |
| 2026-04-22 03:41 | 40.68634 | -74.17163 | 27 ft | 17 kts | 285° |
| 2026-04-22 03:41 | 40.68685 | -74.17314 | 30 ft | 18 kts | 295° |
| 2026-04-22 03:41 | 40.68727 | -74.17428 | 30 ft | 4 kts | 295° |
| 2026-04-22 03:41 | 40.68731 | -74.17439 | 29 ft | 2 kts | 295° |
| 2026-04-22 03:42 | 40.68739 | -74.17461 | 29 ft | 1 kts | 294° |
| 2026-04-22 03:42 | 40.68738 | -74.17477 | 29 ft | 4 kts | 264° |
| 2026-04-22 03:42 | 40.68703 | -74.17555 | 28 ft | 14 kts | 231° |
| 2026-04-22 03:42 | 40.68665 | -74.17647 | 27 ft | 8 kts | 283° |
| 2026-04-22 03:43 | 40.68681 | -74.17655 | 27 ft | 4 kts | 355° |
| 2026-04-22 03:43 | 40.68720 | -74.17660 | 27 ft | 6 kts | 356° |
| 2026-04-22 03:43 | 40.68723 | -74.17660 | 27 ft | 0 kts | 356° |